»·PEaware :: N722Q KASE-KBLH

N722Q :: KASE-KBLH

FLIGHT INFORMATION

Flight Status: Arrived
Operator: Privately registered:
United States
More flights under this callsign
Pilot: Drew L. (13237)
Aircraft: BEECH AIRCRAFT SUPER KING AIR COMMUTER
(BE20)
More flights by this aircraft type
Origin: KASE Aspen-Pitkin Co/Sardy
United States
Destination: KBLH Blythe
United States
More flights between these airports :: More routes between these airports
Route: +LINDZ9 JNC GCN BLH
File this flight plan on PilotEdge
Remarks:
Altitude:
(Current/Filed)
26,000ft
Speed:
(Current/Filed)
0kts
Departed: 31-Jul-18 05:11 PM
Arrived: 31-Jul-18 07:35 PM
Distance/Time
Traveled:
506nm/2:24
Distance/Time
To Go:
Arrived

Flight Plot

Page will automatically refresh every two minutes.

Flight plan parsing failed; only flown route is shown


Map Options




Map Legend


Flown Route
Filed Route
Departure Airport
Arrival Airport
Navaid (VOR, NDB)
Fix

Horizontal Profiles

Position Reports

Time Latitude Longitude Heading Altitude Ground
Speed
31-Jul-18 16:38 39.221547 -106.865219 251 7840ft 0kts
31-Jul-18 16:39 39.221547 -106.865219 251 7840ft 0kts
31-Jul-18 16:40 39.221547 -106.865219 251 7840ft 0kts
31-Jul-18 16:41 39.221547 -106.865219 251 7840ft 0kts
31-Jul-18 16:42 39.221547 -106.865219 251 7840ft 0kts
31-Jul-18 16:43 39.221547 -106.865219 251 7840ft 0kts
31-Jul-18 16:44 39.221547 -106.865219 251 7840ft 0kts
31-Jul-18 16:45 39.221547 -106.865219 251 7840ft 0kts
31-Jul-18 16:46 39.221547 -106.865219 251 7840ft 0kts
31-Jul-18 16:47 39.221547 -106.865219 251 7840ft 0kts
31-Jul-18 16:48 39.221547 -106.865219 251 7840ft 0kts
31-Jul-18 16:49 39.221547 -106.865219 251 7840ft 0kts
31-Jul-18 16:50 39.221547 -106.865219 251 7840ft 0kts
31-Jul-18 16:51 39.221547 -106.865219 251 7840ft 0kts
31-Jul-18 16:52 39.221547 -106.865219 251 7840ft 0kts
31-Jul-18 16:53 39.221547 -106.865219 251 7840ft 0kts
31-Jul-18 16:54 39.221547 -106.865219 251 7840ft 0kts
31-Jul-18 16:55 39.221547 -106.865219 251 7840ft 0kts
31-Jul-18 16:56 39.221547 -106.865219 251 7840ft 0kts
31-Jul-18 16:57 39.221547 -106.865219 251 7840ft 0kts
31-Jul-18 16:58 39.221547 -106.865219 251 7840ft 0kts
31-Jul-18 16:59 39.221547 -106.865219 251 7840ft 0kts
31-Jul-18 17:00 39.221547 -106.865219 251 7840ft 0kts
31-Jul-18 17:01 39.221547 -106.865219 251 7840ft 0kts
31-Jul-18 17:02 39.221547 -106.865219 251 7840ft 0kts
31-Jul-18 17:03 39.221547 -106.865219 251 7840ft 0kts
31-Jul-18 17:04 39.220525 -106.865887 253 7840ft 1kts
31-Jul-18 17:05 39.220519 -106.865911 254 7840ft 0kts
31-Jul-18 17:06 39.218381 -106.865359 161 7840ft 12kts
31-Jul-18 17:07 39.214279 -106.863409 159 7840ft 13kts
31-Jul-18 17:08 39.212241 -106.862474 179 7840ft 0kts
31-Jul-18 17:09 39.212241 -106.862474 179 7840ft 0kts
31-Jul-18 17:10 39.212241 -106.862474 179 7840ft 0kts
31-Jul-18 17:11 39.211809 -106.863361 305 7840ft 12kts
31-Jul-18 17:12 39.229333 -106.871939 333 8253ft 112kts
31-Jul-18 17:13 39.261481 -106.890094 330 9666ft 135kts
31-Jul-18 17:14 39.277863 -106.931773 281 11186ft 143kts
31-Jul-18 17:15 39.283292 -106.983010 277 12619ft 147kts
31-Jul-18 17:16 39.290341 -107.034735 301 13954ft 146kts
31-Jul-18 17:17 39.318579 -107.069467 332 15180ft 143kts
31-Jul-18 17:18 39.352019 -107.096272 323 16315ft 145kts
31-Jul-18 17:19 39.380287 -107.125727 299 17743ft 120kts
31-Jul-18 17:20 39.378695 -107.168353 264 18634ft 134kts
31-Jul-18 17:21 39.363232 -107.221597 255 19090ft 187kts
31-Jul-18 17:22 39.345041 -107.283868 260 20231ft 185kts
31-Jul-18 17:23 39.333304 -107.348070 263 21208ft 186kts
31-Jul-18 17:24 39.321449 -107.413468 263 22106ft 188kts
31-Jul-18 17:25 39.309375 -107.479812 263 22906ft 190kts
31-Jul-18 17:26 39.297258 -107.546165 263 23612ft 192kts
31-Jul-18 17:27 39.284888 -107.613633 263 24260ft 193kts
31-Jul-18 17:28 39.272491 -107.681036 263 24838ft 195kts
31-Jul-18 17:29 39.259874 -107.749390 263 25397ft 196kts
31-Jul-18 17:30 39.247131 -107.818194 263 25819ft 201kts
31-Jul-18 17:31 39.233627 -107.890993 263 25815ft 214kts
31-Jul-18 17:32 39.219844 -107.964670 263 25802ft 218kts
31-Jul-18 17:33 39.205847 -108.039262 262 25789ft 220kts
31-Jul-18 17:34 39.191332 -108.116325 262 25782ft 221kts
31-Jul-18 17:35 39.176805 -108.193154 262 25778ft 222kts
31-Jul-18 17:36 39.162141 -108.270437 262 25771ft 221kts
31-Jul-18 17:37 39.147469 -108.347445 262 25771ft 221kts
31-Jul-18 17:38 39.132739 -108.424496 262 25770ft 221kts
31-Jul-18 17:39 39.118174 -108.500408 262 25771ft 221kts
31-Jul-18 17:40 39.103518 -108.576433 262 25772ft 221kts
31-Jul-18 17:41 39.088939 -108.651795 262 25770ft 221kts
31-Jul-18 17:42 39.074116 -108.728162 262 25775ft 222kts
31-Jul-18 17:43 39.052882 -108.802167 230 25792ft 236kts
31-Jul-18 17:44 39.004003 -108.859452 228 25775ft 239kts
31-Jul-18 17:45 38.954513 -108.916283 228 25775ft 239kts
31-Jul-18 17:46 38.904799 -108.973154 228 25774ft 239kts
31-Jul-18 17:47 38.860500 -109.023701 228 25760ft 238kts
31-Jul-18 17:48 38.837325 -109.050122 228 25756ft 238kts
31-Jul-18 17:49 38.788081 -109.106186 228 25748ft 236kts
31-Jul-18 17:50 38.745379 -109.154710 228 25740ft 235kts
31-Jul-18 17:51 38.696671 -109.209966 228 25732ft 233kts
31-Jul-18 17:52 38.648378 -109.264652 228 25732ft 232kts
31-Jul-18 17:53 38.599930 -109.319405 228 25732ft 232kts
31-Jul-18 17:54 38.551687 -109.373825 228 25733ft 232kts
31-Jul-18 17:55 38.503555 -109.428023 228 25736ft 232kts
31-Jul-18 17:56 38.455240 -109.482317 228 25732ft 232kts
31-Jul-18 17:57 38.406894 -109.536431 228 25733ft 232kts
31-Jul-18 17:58 38.358583 -109.590631 228 25733ft 232kts
31-Jul-18 17:59 38.310112 -109.644813 228 25732ft 232kts
31-Jul-18 18:00 38.262403 -109.698035 228 25737ft 233kts
31-Jul-18 18:01 38.213601 -109.752374 228 25759ft 232kts
31-Jul-18 18:02 38.165097 -109.806279 228 25814ft 231kts
31-Jul-18 18:03 38.116640 -109.860042 228 25870ft 231kts
31-Jul-18 18:04 38.068296 -109.913583 228 25919ft 231kts
31-Jul-18 18:05 38.019784 -109.967218 228 25892ft 234kts
31-Jul-18 18:06 37.978842 -110.012402 227 25850ft 235kts
31-Jul-18 18:07 37.921068 -110.076023 227 25804ft 236kts
31-Jul-18 18:08 37.872483 -110.129413 228 25796ft 234kts
31-Jul-18 18:09 37.831984 -110.173849 228 25817ft 232kts
31-Jul-18 18:10 37.775282 -110.235974 228 25838ft 231kts
31-Jul-18 18:11 37.726511 -110.289306 228 25818ft 233kts
31-Jul-18 18:12 37.685648 -110.333913 228 25785ft 234kts
31-Jul-18 18:13 37.628237 -110.396454 228 25740ft 234kts
31-Jul-18 18:14 37.587083 -110.441205 227 25738ft 233kts
31-Jul-18 18:15 37.538165 -110.494310 228 25769ft 232kts
31-Jul-18 18:16 37.489362 -110.547209 228 25776ft 232kts
31-Jul-18 18:17 37.440379 -110.600211 228 25758ft 233kts
31-Jul-18 18:18 37.391645 -110.652835 227 25724ft 234kts
31-Jul-18 18:19 37.342274 -110.706055 227 25727ft 234kts
31-Jul-18 18:20 37.292783 -110.759304 227 25727ft 234kts
31-Jul-18 18:21 37.243391 -110.812354 227 25727ft 234kts
31-Jul-18 18:22 37.193856 -110.865464 227 25727ft 235kts
31-Jul-18 18:23 37.144280 -110.918540 227 25727ft 234kts
31-Jul-18 18:24 37.094761 -110.971461 226 25727ft 234kts
31-Jul-18 18:25 37.045241 -111.024286 226 25727ft 234kts
31-Jul-18 18:26 36.995828 -111.076881 225 25727ft 234kts
31-Jul-18 18:27 36.946144 -111.129667 225 25727ft 235kts
31-Jul-18 18:28 36.897101 -111.181677 225 25730ft 239kts
31-Jul-18 18:29 36.844777 -111.237114 225 25724ft 252kts
31-Jul-18 18:30 36.790744 -111.294181 225 25723ft 257kts
31-Jul-18 18:31 36.735906 -111.351997 225 25723ft 259kts
31-Jul-18 18:32 36.680768 -111.410017 225 25723ft 260kts
31-Jul-18 18:33 36.625495 -111.468079 225 25723ft 260kts
31-Jul-18 18:34 36.570255 -111.525990 225 25723ft 260kts
31-Jul-18 18:35 36.514843 -111.583976 225 25723ft 260kts
31-Jul-18 18:36 36.459580 -111.641686 225 25726ft 260kts
31-Jul-18 18:37 36.406864 -111.696656 224 25766ft 264kts
31-Jul-18 18:38 36.350968 -111.754815 224 25841ft 270kts
31-Jul-18 18:39 36.304764 -111.803423 219 25678ft 278kts
31-Jul-18 18:40 36.268039 -111.840300 224 25951ft 267kts
31-Jul-18 18:41 36.230808 -111.879234 224 25975ft 271kts
31-Jul-18 18:42 36.172683 -111.939510 224 25974ft 275kts
31-Jul-18 18:43 36.114492 -111.999565 224 25974ft 276kts
31-Jul-18 18:44 36.055660 -112.060148 224 25974ft 276kts
31-Jul-18 18:45 36.003258 -112.113686 224 25969ft 274kts
31-Jul-18 18:46 35.945913 -112.175275 227 25974ft 274kts
31-Jul-18 18:47 35.893809 -112.235457 227 25971ft 275kts
31-Jul-18 18:48 35.858311 -112.276335 227 25969ft 274kts
31-Jul-18 18:49 35.802828 -112.340116 227 25969ft 274kts
31-Jul-18 18:50 35.748850 -112.402047 227 25970ft 274kts
31-Jul-18 18:51 35.693370 -112.465573 227 25970ft 274kts
31-Jul-18 18:52 35.637572 -112.529337 227 25970ft 274kts
31-Jul-18 18:53 35.582014 -112.592699 227 25970ft 274kts
31-Jul-18 18:54 35.526262 -112.656155 227 25971ft 274kts
31-Jul-18 18:55 35.471430 -112.718445 227 25973ft 275kts
31-Jul-18 18:56 35.416989 -112.780170 227 25973ft 275kts
31-Jul-18 18:57 35.361212 -112.843281 227 25974ft 273kts
31-Jul-18 18:58 35.306161 -112.905489 226 25961ft 269kts
31-Jul-18 18:59 35.251777 -112.966832 225 25930ft 264kts
31-Jul-18 19:00 35.198617 -113.026677 224 25883ft 259kts
31-Jul-18 19:01 35.145837 -113.085869 224 25848ft 256kts
31-Jul-18 19:02 35.093563 -113.144432 224 25815ft 255kts
31-Jul-18 19:03 35.041310 -113.202898 224 25781ft 255kts
31-Jul-18 19:04 34.989065 -113.261307 224 25747ft 255kts
31-Jul-18 19:05 34.936771 -113.319623 223 25732ft 255kts
31-Jul-18 19:06 34.893429 -113.367871 223 25733ft 256kts
31-Jul-18 19:07 34.854689 -113.410905 223 25734ft 257kts
31-Jul-18 19:08 34.801907 -113.469457 223 25733ft 257kts
31-Jul-18 19:09 34.752493 -113.524198 223 25733ft 257kts
31-Jul-18 19:10 34.700006 -113.582241 223 25541ft 257kts
31-Jul-18 19:11 34.647742 -113.639948 222 25158ft 255kts
31-Jul-18 19:12 34.597042 -113.695818 222 24833ft 255kts
31-Jul-18 19:13 34.545561 -113.752449 222 24469ft 251kts
31-Jul-18 19:14 34.493910 -113.809189 221 23399ft 250kts
31-Jul-18 19:15 34.443176 -113.864804 221 22488ft 247kts
31-Jul-18 19:16 34.392248 -113.920542 221 22188ft 246kts
31-Jul-18 19:17 34.341696 -113.975768 221 22102ft 245kts
31-Jul-18 19:18 34.291402 -114.030635 221 21680ft 243kts
31-Jul-18 19:19 34.242986 -114.083381 220 19996ft 239kts
31-Jul-18 19:20 34.194302 -114.136327 219 17886ft 234kts
31-Jul-18 19:21 34.146596 -114.188097 219 15868ft 230kts
31-Jul-18 19:22 34.100254 -114.238302 219 13968ft 226kts
31-Jul-18 19:23 34.053831 -114.288521 219 12129ft 223kts
31-Jul-18 19:24 34.008627 -114.337345 219 10450ft 217kts
31-Jul-18 19:25 33.964770 -114.384669 219 8840ft 212kts
31-Jul-18 19:26 33.920948 -114.431917 219 7724ft 209kts
31-Jul-18 19:27 33.878149 -114.478011 219 7219ft 208kts
31-Jul-18 19:28 33.835595 -114.523752 219 6750ft 206kts
31-Jul-18 19:29 33.794058 -114.568365 219 6477ft 192kts
31-Jul-18 19:30 33.747162 -114.590205 180 6152ft 174kts
31-Jul-18 19:31 33.697940 -114.589673 178 5034ft 181kts
31-Jul-18 19:32 33.650203 -114.587808 189 3614ft 157kts
31-Jul-18 19:33 33.621964 -114.608508 242 2870ft 120kts
31-Jul-18 19:34 33.616522 -114.646974 267 1890ft 118kts
31-Jul-18 19:35 33.616559 -114.686231 266 895ft 115kts
31-Jul-18 19:36 33.616587 -114.718165 268 401ft 39kts
31-Jul-18 19:37 33.615154 -114.722284 91 401ft 10kts
31-Jul-18 19:38 33.615130 -114.717134 90 401ft 24kts
31-Jul-18 19:39 33.614941 -114.712402 171 401ft 6kts
31-Jul-18 19:40 33.614481 -114.712403 181 401ft 0kts
31-Jul-18 19:41 33.614481 -114.712403 181 401ft 0kts

Navigation Log

Ident Type
Flight plan parsing failed, navigation log unavailable